x

Folly Island, Sc (fbis1) Weather Station

10:00pm - Thu 21st Aug 2014 All times are EDT. -4 hours from GMT.

  • Wind
    6mph, 8mph gusts
  • Air Temp 84°f
  • Sea Pressure 1018.2mb
  • Folly Island, Sc
  • Folly Island, Sc

More Historic Weather Station data

Upgrade to MSW Pro to gain access to the past 30 days of data for over 8000 Wavebouys and Weather Stations around the globe.

Join Pro

Comparision Forecast

View Surf forecast
   
Thu 08/21 10:00pm 6 8 mph 1018.2mb 84f
9:00pm 5
mph
1017.7mb 84f
8:00pm 8 9 mph 1017.4mb 85f
7:00pm 8 9 mph 1017.2mb 86f
6:00pm 9 10 mph 1016.9mb 87f
5:00pm 13 14 mph 1017.1mb 86f
4:00pm 13 14 mph 1017mb 87f
3:00pm 9 11 mph 1017.4mb 87f
2:00pm 9 10 mph 1017.9mb 87f
1:00pm 8 10 mph 1018.2mb 87f
12:00pm 7 10 mph 1018.7mb 87f
11:00am 5 7 mph 1019mb 85f
10:00am 3 8 mph 1019mb 83f
9:00am 6 8 mph 1018.7mb 79f
8:00am 6 9 mph 1018.2mb 78f
7:00am 5 7 mph 1017.4mb 77f
6:00am 3 5 mph 1017.1mb 78f
5:00am 5 6 mph 1016.5mb 78f
4:00am 3 5 mph 1016.5mb 79f
3:00am 5 6 mph 1016.7mb 80f
2:00am 2 3 mph 1017.2mb 80f
1:00am 3 6 mph 1017.6mb 82f
12:00am 7 8 mph 1017.4mb 84f
Wed 08/20 11:00pm 6 7 mph 1017.6mb 84f
10:00pm 8 11 mph 1016.6mb 84f
9:00pm 7 8 mph 1016.2mb 84f
8:00pm 10 13 mph 1015.4mb 85f
7:00pm 15 17 mph 1015.2mb 86f
6:00pm 15 17 mph 1015.2mb 86f
5:00pm 15 17 mph 1015.3mb 86f
4:00pm 16 18 mph 1015.3mb 85f
3:00pm 13 16 mph 1015.8mb 85f
2:00pm 16 17 mph 1016.1mb 84f
1:00pm 11 14 mph 1016.2mb 84f
12:00pm 10 13 mph 1016.4mb 84f
11:00am 3 6 mph 1016.6mb 85f
10:00am 3 6 mph 1016.2mb 82f
9:00am 8 10 mph 1015.7mb 79f
8:00am 5 8 mph 1015.2mb 76f
7:00am 5 8 mph 1014.5mb 75f
6:00am 6 9 mph 1013.7mb 75f
5:00am 5 7 mph 1013.2mb 75f
4:00am 7 9 mph 1013.2mb 76f
3:00am 7 8 mph 1013mb 77f
2:00am 7 10 mph 1013.3mb 77f
1:00am 6 8 mph 1013.4mb 78f
12:00am 6 7 mph 1013.3mb 79f
Tue 08/19 11:00pm 6 7 mph 1013.6mb 79f
10:00pm 5 6 mph 1012.6mb 79f
9:00pm 6 9 mph 1012.2mb 80f
8:00pm 7 10 mph 1011.8mb 80f
7:00pm 13 16 mph 1011.9mb 82f
6:00pm 10 15 mph 1011.6mb 83f
5:00pm 8 11 mph 1011.3mb 79f
4:00pm 30 39 mph 1011.9mb 76f
3:00pm 21 23 mph 1012mb 87f
2:00pm 16 18 mph 1012.6mb 87f
1:00pm 10 14 mph 1013.1mb 86f
12:00pm 10 15 mph 1013.5mb 87f
11:00am 11 18 mph 1014mb 84f
10:00am 10 15 mph 1013.8mb 81f
9:00am 11 15 mph 1013.4mb 78f
8:00am 10 15 mph 1012.9mb 76f
7:00am 6 9 mph 1012.4mb 76f
6:00am 9 13 mph 1012mb 76f
5:00am 7 11 mph 1011.4mb 77f
4:00am 9 13 mph 1011.5mb 77f
3:00am 8 11 mph 1011.5mb 77f
2:00am 7 8 mph 1011.8mb 78f
1:00am 5
mph
1011.9mb 77f
12:00am 1 2 mph 1012.2mb 75f
Mon 08/18 11:00pm 10 18 mph 1013.6mb -
10:00pm 18 23 mph 1011.6mb 85f
9:00pm 21 24 mph 1011.5mb 85f
8:00pm 20 23 mph 1011.7mb 85f
7:00pm 24 26 mph 1011.1mb 85f
6:00pm 24 29 mph 1011.1mb 85f
5:00pm 23 26 mph 1011.5mb 85f
4:00pm 17 21 mph 1011.9mb 85f
3:00pm 20 23 mph 1012.9mb 85f
2:00pm 15 18 mph 1013.8mb 85f
1:00pm 16 18 mph 1014.3mb 84f
12:00pm 16 18 mph 1014.8mb 83f
11:00am 14 17 mph 1015.2mb 83f
10:00am 9 11 mph 1015mb 83f
9:00am 6 8 mph 1015.2mb 82f
8:00am 7 9 mph 1015.4mb 80f
7:00am 6 8 mph 1015.4mb 78f
6:00am 6 8 mph 1015.1mb 79f
5:00am 8 10 mph 1015.1mb 80f
4:00am 8 13 mph 1014.8mb 81f